createdAt,value
2023-02-23T00:00:30.912Z,0.00
2023-02-23T00:01:30.836Z,0.00
2023-02-23T00:02:30.844Z,0.00
2023-02-23T00:03:30.902Z,0.00
2023-02-23T00:04:30.830Z,0.00
2023-02-23T00:05:30.784Z,0.00
2023-02-23T00:06:30.826Z,0.00
2023-02-23T00:07:30.737Z,0.00
2023-02-23T00:08:30.821Z,0.00
2023-02-23T00:09:30.740Z,0.00
2023-02-23T00:10:30.710Z,0.00
2023-02-23T00:11:30.756Z,0.00
2023-02-23T00:12:30.759Z,0.00
2023-02-23T00:13:30.711Z,0.00
2023-02-23T00:14:30.677Z,0.00
2023-02-23T00:15:30.684Z,0.00
2023-02-23T00:16:30.715Z,0.00
2023-02-23T00:17:30.689Z,0.00
2023-02-23T00:18:30.664Z,0.00
2023-02-23T00:19:30.694Z,0.00
2023-02-23T00:20:30.617Z,0.00
2023-02-23T00:21:30.616Z,0.00
2023-02-23T00:22:30.631Z,0.00
2023-02-23T00:23:30.589Z,0.00
2023-02-23T00:24:30.592Z,0.00
2023-02-23T00:25:30.534Z,0.00
2023-02-23T00:26:30.574Z,0.00
2023-02-23T00:27:30.566Z,0.00
2023-02-23T00:28:30.521Z,0.00
2023-02-23T00:29:30.718Z,0.00
2023-02-23T00:30:30.753Z,0.00
2023-02-23T00:31:30.508Z,0.00
2023-02-23T00:32:30.641Z,0.00
2023-02-23T00:33:30.488Z,0.00
2023-02-23T00:34:30.455Z,0.00
2023-02-23T00:35:30.462Z,0.00
2023-02-23T00:36:30.464Z,0.00
2023-02-23T00:37:30.497Z,0.00
2023-02-23T00:38:30.414Z,0.00
2023-02-23T00:39:30.422Z,0.00
2023-02-23T00:40:30.390Z,0.00
2023-02-23T00:41:30.447Z,0.00
2023-02-23T00:42:30.438Z,0.00
2023-02-23T00:43:30.397Z,0.00
2023-02-23T00:44:30.383Z,0.00
2023-02-23T00:45:30.386Z,0.00
2023-02-23T00:46:30.349Z,0.00
2023-02-23T00:47:30.376Z,0.00
2023-02-23T00:48:30.287Z,0.00
2023-02-23T00:49:30.413Z,0.00
2023-02-23T00:50:30.305Z,0.00
2023-02-23T00:51:30.362Z,0.00
2023-02-23T00:52:30.257Z,0.00
2023-02-23T00:53:30.329Z,0.00
2023-02-23T00:54:30.228Z,0.00
2023-02-23T00:55:30.240Z,0.00
2023-02-23T00:56:30.239Z,0.00
2023-02-23T00:57:30.247Z,0.00
2023-02-23T00:58:30.242Z,0.00
2023-02-23T00:59:30.279Z,0.00
2023-02-23T01:00:30.189Z,0.00
2023-02-23T01:01:30.193Z,0.00
2023-02-23T01:02:30.197Z,0.00
2023-02-23T01:03:30.189Z,0.00
2023-02-23T01:04:30.122Z,0.00
2023-02-23T01:05:30.130Z,0.00
2023-02-23T01:06:30.078Z,0.00
2023-02-23T01:07:30.142Z,0.00
2023-02-23T01:08:30.085Z,0.00
2023-02-23T01:09:30.114Z,0.00
2023-02-23T01:10:30.074Z,0.00
2023-02-23T01:11:30.049Z,0.00
2023-02-23T01:12:30.081Z,0.00
2023-02-23T01:13:30.052Z,0.00
2023-02-23T01:14:30.049Z,0.00
2023-02-23T01:15:30.068Z,0.00
2023-02-23T01:16:30.044Z,0.00
2023-02-23T01:17:30.145Z,0.00
2023-02-23T01:18:29.973Z,0.00
2023-02-23T01:19:30.062Z,0.00
2023-02-23T01:20:29.929Z,0.00
2023-02-23T01:21:30.000Z,0.00
2023-02-23T01:22:30.069Z,0.00
2023-02-23T01:23:29.930Z,0.00
2023-02-23T01:24:29.946Z,0.00
2023-02-23T01:25:29.912Z,0.00
2023-02-23T01:26:29.869Z,0.00
2023-02-23T01:27:29.867Z,0.00
2023-02-23T01:28:29.882Z,0.00
2023-02-23T01:29:29.850Z,0.00
2023-02-23T01:30:29.859Z,0.00
2023-02-23T01:31:30.038Z,0.00
2023-02-23T01:32:30.078Z,0.00
2023-02-23T01:33:29.770Z,0.00
2023-02-23T01:34:29.882Z,0.00
2023-02-23T01:35:29.754Z,0.00
2023-02-23T01:36:29.789Z,0.00
2023-02-23T01:37:29.789Z,0.00
2023-02-23T01:38:29.781Z,0.00
2023-02-23T01:39:29.770Z,0.00
2023-02-23T01:40:29.734Z,0.00
2023-02-23T01:41:29.754Z,0.00
2023-02-23T01:42:29.750Z,0.00
2023-02-23T01:43:29.722Z,0.00
2023-02-23T01:44:29.703Z,0.00
2023-02-23T01:45:29.643Z,0.00
2023-02-23T01:46:29.804Z,0.00
2023-02-23T01:47:29.652Z,0.00
2023-02-23T01:48:31.770Z,0.00
2023-02-23T01:49:29.641Z,0.00
2023-02-23T01:50:29.602Z,0.00
2023-02-23T01:51:29.601Z,0.00
2023-02-23T01:52:29.655Z,0.00
2023-02-23T01:53:29.595Z,0.00
2023-02-23T01:54:29.592Z,0.00
2023-02-23T01:55:29.572Z,0.00
2023-02-23T01:56:29.539Z,0.00
2023-02-23T01:57:29.618Z,0.00
2023-02-23T01:58:29.528Z,0.00
2023-02-23T01:59:29.635Z,0.00
2023-02-23T02:00:29.561Z,0.00
2023-02-23T02:01:29.503Z,0.00
2023-02-23T02:02:29.512Z,0.00
2023-02-23T02:03:29.470Z,0.00
2023-02-23T02:04:29.520Z,0.00
2023-02-23T02:05:29.453Z,0.00
2023-02-23T02:06:29.451Z,0.00
2023-02-23T02:07:29.504Z,0.00
2023-02-23T02:08:29.394Z,0.00
2023-02-23T02:09:29.455Z,0.00
2023-02-23T02:10:29.419Z,0.00
2023-02-23T02:11:29.488Z,0.00
2023-02-23T02:12:29.408Z,0.00
2023-02-23T02:13:29.520Z,0.00
2023-02-23T02:14:29.383Z,0.00
2023-02-23T02:15:29.397Z,0.00
2023-02-23T02:16:29.346Z,0.00
2023-02-23T02:17:29.304Z,0.00
2023-02-23T02:18:29.362Z,0.00
2023-02-23T02:19:29.265Z,0.00
2023-02-23T02:20:29.292Z,0.00
2023-02-23T02:21:29.263Z,0.00
2023-02-23T02:22:29.375Z,0.00
2023-02-23T02:23:29.271Z,0.00
2023-02-23T02:24:31.134Z,0.00
2023-02-23T02:25:29.252Z,0.00
2023-02-23T02:26:29.211Z,0.00
2023-02-23T02:27:29.258Z,0.00
2023-02-23T02:28:29.194Z,0.00
2023-02-23T02:29:29.194Z,0.00
2023-02-23T02:30:29.210Z,0.00
2023-02-23T02:31:29.212Z,0.00
2023-02-23T02:32:29.245Z,0.00
2023-02-23T02:33:29.223Z,0.00
2023-02-23T02:34:29.255Z,0.00
2023-02-23T02:35:29.152Z,0.00
2023-02-23T02:36:29.160Z,0.00
2023-02-23T02:37:29.177Z,0.00
2023-02-23T02:38:29.060Z,0.00
2023-02-23T02:39:29.075Z,0.00
2023-02-23T02:40:29.168Z,0.00
2023-02-23T02:41:29.215Z,0.00
2023-02-23T02:42:29.179Z,0.00
2023-02-23T02:43:29.318Z,0.00
2023-02-23T02:44:29.237Z,0.00
2023-02-23T02:45:29.081Z,0.00
2023-02-23T02:46:29.430Z,0.00
2023-02-23T02:47:29.133Z,0.00
2023-02-23T02:48:29.437Z,0.00
2023-02-23T02:49:29.203Z,0.00
2023-02-23T02:50:29.416Z,0.00
2023-02-23T02:51:28.988Z,0.00
2023-02-23T02:52:28.928Z,0.00
2023-02-23T02:53:28.967Z,0.00
2023-02-23T02:54:28.922Z,0.00
2023-02-23T02:55:29.052Z,0.00
2023-02-23T02:56:28.932Z,0.00
2023-02-23T02:57:28.885Z,0.00
2023-02-23T02:58:28.864Z,0.00
2023-02-23T02:59:28.930Z,0.00
2023-02-23T03:00:28.882Z,0.00
2023-02-23T03:01:28.874Z,0.00
2023-02-23T03:02:28.885Z,0.00
2023-02-23T03:03:28.840Z,0.00
2023-02-23T03:04:28.804Z,0.00
2023-02-23T03:05:28.867Z,0.00
2023-02-23T03:06:28.863Z,0.00
2023-02-23T03:07:28.778Z,0.00
2023-02-23T03:08:28.766Z,0.00
2023-02-23T03:09:28.754Z,0.00
2023-02-23T03:10:29.050Z,0.00
2023-02-23T03:11:28.878Z,0.00
2023-02-23T03:12:28.858Z,0.00
2023-02-23T03:13:28.995Z,0.00
2023-02-23T03:14:28.888Z,0.00
2023-02-23T03:15:28.907Z,0.00
2023-02-23T03:16:28.678Z,0.00
2023-02-23T03:17:28.834Z,0.00
2023-02-23T03:18:28.780Z,0.00
2023-02-23T03:19:28.680Z,0.00
2023-02-23T03:20:29.052Z,0.00
2023-02-23T03:21:28.801Z,0.00
2023-02-23T03:22:28.765Z,0.00
2023-02-23T03:23:28.774Z,0.00
2023-02-23T03:24:28.658Z,0.00
2023-02-23T03:25:28.678Z,0.00
2023-02-23T03:26:28.655Z,0.00
2023-02-23T03:27:28.677Z,0.00
2023-02-23T03:28:28.588Z,0.00
2023-02-23T03:29:28.561Z,0.00
2023-02-23T03:30:28.652Z,0.00
2023-02-23T03:31:28.587Z,0.00
2023-02-23T03:32:28.945Z,0.00
2023-02-23T03:33:28.501Z,0.00
2023-02-23T03:34:28.529Z,0.00
2023-02-23T03:35:28.518Z,0.00
2023-02-23T03:36:28.488Z,0.00
2023-02-23T03:37:28.512Z,0.00
2023-02-23T03:38:28.504Z,0.00
2023-02-23T03:39:28.452Z,0.00
2023-02-23T03:40:28.420Z,0.00
2023-02-23T03:41:28.456Z,0.00
2023-02-23T03:42:28.502Z,0.00
2023-02-23T03:43:28.468Z,0.00
2023-02-23T03:44:28.435Z,0.00
2023-02-23T03:45:28.445Z,0.00
2023-02-23T03:46:28.509Z,0.00
2023-02-23T03:47:28.429Z,0.00
2023-02-23T03:48:28.368Z,0.00
2023-02-23T03:49:28.450Z,0.00
2023-02-23T03:50:28.393Z,0.00
2023-02-23T03:51:28.374Z,0.00
2023-02-23T03:52:28.354Z,0.00
2023-02-23T03:53:28.374Z,0.00
2023-02-23T03:54:28.363Z,0.00
2023-02-23T03:55:28.325Z,0.00
2023-02-23T03:56:28.301Z,0.00
2023-02-23T03:57:28.247Z,0.00
2023-02-23T03:58:28.284Z,0.00
2023-02-23T03:59:28.274Z,0.00
2023-02-23T04:00:28.329Z,0.00
2023-02-23T04:01:28.238Z,0.00
2023-02-23T04:02:28.225Z,0.00
2023-02-23T04:03:28.274Z,0.00
2023-02-23T04:04:28.226Z,0.00
2023-02-23T04:05:28.247Z,0.00
2023-02-23T04:06:28.255Z,0.00
2023-02-23T04:07:28.194Z,0.00
2023-02-23T04:08:28.203Z,0.00
2023-02-23T04:09:28.153Z,0.00
2023-02-23T04:10:28.118Z,0.00
2023-02-23T04:11:28.130Z,0.00
2023-02-23T04:12:28.131Z,0.00
2023-02-23T04:13:28.162Z,0.00
2023-02-23T04:14:28.132Z,0.00
2023-02-23T04:15:28.103Z,0.00
2023-02-23T04:16:28.176Z,0.00
2023-02-23T04:17:28.093Z,0.00
2023-02-23T04:18:28.087Z,0.00
2023-02-23T04:19:28.013Z,0.00
2023-02-23T04:20:28.048Z,0.00
2023-02-23T04:21:28.124Z,0.00
2023-02-23T04:22:28.035Z,0.00
2023-02-23T04:23:28.062Z,0.00
2023-02-23T04:24:28.017Z,0.00
2023-02-23T04:25:28.019Z,0.00
2023-02-23T04:26:28.002Z,0.00
2023-02-23T04:27:27.988Z,0.00
2023-02-23T04:28:28.009Z,0.00
2023-02-23T04:29:27.971Z,0.00
2023-02-23T04:30:27.975Z,0.00
2023-02-23T04:31:28.072Z,0.00
2023-02-23T04:32:28.019Z,0.00
2023-02-23T04:33:27.917Z,0.00
2023-02-23T04:34:27.900Z,0.00
2023-02-23T04:35:27.920Z,0.00
2023-02-23T04:36:28.000Z,0.00
2023-02-23T04:37:27.861Z,0.00
2023-02-23T04:38:27.895Z,0.00
2023-02-23T04:39:27.863Z,0.00
2023-02-23T04:40:27.802Z,0.00
2023-02-23T04:41:27.853Z,0.00
2023-02-23T04:42:27.804Z,0.00
2023-02-23T04:43:27.809Z,0.00
2023-02-23T04:44:27.823Z,0.00
2023-02-23T04:45:27.759Z,0.00
2023-02-23T04:46:27.784Z,0.00
2023-02-23T04:47:27.780Z,0.00
2023-02-23T04:48:27.794Z,0.00
2023-02-23T04:49:27.720Z,0.00
2023-02-23T04:50:27.761Z,0.00
2023-02-23T04:51:27.731Z,0.00
2023-02-23T04:52:27.674Z,0.00
2023-02-23T04:53:27.772Z,0.00
2023-02-23T04:54:27.677Z,0.00
2023-02-23T04:55:27.670Z,0.00
2023-02-23T04:56:27.691Z,0.00
2023-02-23T04:57:27.639Z,0.00
2023-02-23T04:58:27.654Z,0.00
2023-02-23T04:59:27.593Z,0.00
2023-02-23T05:00:27.629Z,0.00
2023-02-23T05:01:27.632Z,0.00
2023-02-23T05:02:27.606Z,0.00
2023-02-23T05:03:27.588Z,0.00
2023-02-23T05:04:27.802Z,0.00
2023-02-23T05:05:27.612Z,0.00
2023-02-23T05:06:27.657Z,0.00
2023-02-23T05:07:27.581Z,0.00
2023-02-23T05:08:27.539Z,0.00
2023-02-23T05:09:27.637Z,0.00
2023-02-23T05:10:27.546Z,0.00
2023-02-23T05:11:27.663Z,0.00
2023-02-23T05:12:27.535Z,0.00
2023-02-23T05:13:27.531Z,0.00
2023-02-23T05:14:27.568Z,0.00
2023-02-23T05:15:27.499Z,0.00
2023-02-23T05:16:27.628Z,0.00
2023-02-23T05:17:27.404Z,0.00
2023-02-23T05:18:27.469Z,0.00
2023-02-23T05:19:27.423Z,0.00
2023-02-23T05:20:27.416Z,0.00
2023-02-23T05:21:27.373Z,0.00
2023-02-23T05:22:27.374Z,0.00
2023-02-23T05:23:27.388Z,0.00
2023-02-23T05:24:27.463Z,0.00
2023-02-23T05:25:27.393Z,0.00
2023-02-23T05:26:27.346Z,0.00
2023-02-23T05:27:27.477Z,0.00
2023-02-23T05:28:27.308Z,0.00
2023-02-23T05:29:27.386Z,0.00
2023-02-23T05:30:27.353Z,0.00
2023-02-23T05:31:27.457Z,0.00
2023-02-23T05:32:27.543Z,0.00
2023-02-23T05:33:27.262Z,0.00
2023-02-23T05:34:27.253Z,0.00
2023-02-23T05:35:27.218Z,0.00
2023-02-23T05:36:27.269Z,0.00
2023-02-23T05:37:27.253Z,0.00
2023-02-23T05:38:27.285Z,0.00
2023-02-23T05:39:27.179Z,0.00
2023-02-23T05:40:27.160Z,0.00
2023-02-23T05:41:27.177Z,0.00
2023-02-23T05:42:27.338Z,0.00
2023-02-23T05:43:27.236Z,0.00
2023-02-23T05:44:27.164Z,0.00
2023-02-23T05:45:27.134Z,0.00
2023-02-23T05:46:27.182Z,0.00
2023-02-23T05:47:27.141Z,0.00
2023-02-23T05:48:27.091Z,0.00
2023-02-23T05:49:27.184Z,0.00
2023-02-23T05:50:27.138Z,0.00
2023-02-23T05:51:27.061Z,0.00
2023-02-23T05:52:27.030Z,0.00
2023-02-23T05:53:27.047Z,0.00
2023-02-23T05:54:27.196Z,0.00
2023-02-23T05:55:27.014Z,0.00
2023-02-23T05:56:26.992Z,0.00
2023-02-23T05:57:27.000Z,0.00
2023-02-23T05:58:26.969Z,1.00
2023-02-23T05:59:26.976Z,0.00
2023-02-23T06:00:27.000Z,1.00
2023-02-23T06:01:26.914Z,1.00
2023-02-23T06:02:26.959Z,0.00
2023-02-23T06:03:26.920Z,1.00
2023-02-23T06:04:26.878Z,1.00
2023-02-23T06:05:26.889Z,3.00
2023-02-23T06:06:26.903Z,1.00
2023-02-23T06:07:26.822Z,2.00
2023-02-23T06:08:26.980Z,5.00
2023-02-23T06:09:26.915Z,9.00
2023-02-23T06:10:26.918Z,11.00
2023-02-23T06:11:26.825Z,11.00
2023-02-23T06:12:26.848Z,12.00
2023-02-23T06:13:26.851Z,11.00
2023-02-23T06:14:26.796Z,16.00
2023-02-23T06:15:29.057Z,12.00
2023-02-23T06:16:26.988Z,16.00
2023-02-23T06:17:26.742Z,26.00
2023-02-23T06:18:26.752Z,21.00
2023-02-23T06:19:26.728Z,26.00
2023-02-23T06:20:26.686Z,34.00
2023-02-23T06:21:26.684Z,35.00
2023-02-23T06:22:26.753Z,36.00
2023-02-23T06:23:26.686Z,43.00
2023-02-23T06:24:26.681Z,50.00
2023-02-23T06:25:26.700Z,51.00
2023-02-23T06:26:26.647Z,55.00
2023-02-23T06:27:26.625Z,59.00
2023-02-23T06:28:26.692Z,82.00
2023-02-23T06:29:26.661Z,83.00
2023-02-23T06:30:26.614Z,98.00
2023-02-23T06:31:26.663Z,99.00
2023-02-23T06:32:26.583Z,108.00
2023-02-23T06:33:26.589Z,105.00
2023-02-23T06:34:26.565Z,136.00
2023-02-23T06:35:26.525Z,119.00
2023-02-23T06:36:26.699Z,114.00
2023-02-23T06:37:26.562Z,136.00
2023-02-23T06:38:26.544Z,146.00
2023-02-23T06:39:26.484Z,136.00
2023-02-23T06:40:26.503Z,137.00
2023-02-23T06:41:26.492Z,169.00
2023-02-23T06:42:26.476Z,186.00
2023-02-23T06:43:26.484Z,225.00
2023-02-23T06:44:26.509Z,218.00
2023-02-23T06:45:26.453Z,229.00
2023-02-23T06:46:26.605Z,256.00
2023-02-23T06:47:26.440Z,274.00
2023-02-23T06:48:26.395Z,299.00
2023-02-23T06:49:26.382Z,276.00
2023-02-23T06:50:26.392Z,337.00
2023-02-23T06:51:26.428Z,273.00
2023-02-23T06:52:26.424Z,344.00
2023-02-23T06:53:26.373Z,387.00
2023-02-23T06:54:26.395Z,425.00
2023-02-23T06:55:26.435Z,375.00
2023-02-23T06:56:26.331Z,419.00
2023-02-23T06:57:26.370Z,471.00
2023-02-23T06:58:26.311Z,291.00
2023-02-23T06:59:26.270Z,407.00
2023-02-23T07:00:26.279Z,408.00
2023-02-23T07:01:26.361Z,423.00
2023-02-23T07:02:26.260Z,376.00
2023-02-23T07:03:26.299Z,440.00
2023-02-23T07:04:26.259Z,426.00
2023-02-23T07:05:26.273Z,440.00
2023-02-23T07:06:26.197Z,441.00
2023-02-23T07:07:26.247Z,439.00
2023-02-23T07:08:26.258Z,455.00
2023-02-23T07:09:26.164Z,402.00
2023-02-23T07:10:26.173Z,343.00
2023-02-23T07:11:26.239Z,337.00
2023-02-23T07:12:26.177Z,350.00
2023-02-23T07:13:26.166Z,439.00
2023-02-23T07:14:27.086Z,529.00
2023-02-23T07:15:26.130Z,448.00
2023-02-23T07:16:26.221Z,384.00
2023-02-23T07:17:26.114Z,392.00
2023-02-23T07:18:26.133Z,466.00
2023-02-23T07:19:26.088Z,534.00
2023-02-23T07:20:26.031Z,568.00
2023-02-23T07:21:26.174Z,575.00
2023-02-23T07:22:26.113Z,629.00
2023-02-23T07:23:26.012Z,635.00
2023-02-23T07:24:26.087Z,646.00
2023-02-23T07:25:26.213Z,508.00
2023-02-23T07:26:25.965Z,613.00
2023-02-23T07:27:26.082Z,836.00
2023-02-23T07:28:25.983Z,850.00
2023-02-23T07:29:25.949Z,724.00
2023-02-23T07:30:26.045Z,706.00
2023-02-23T07:31:26.043Z,538.00
2023-02-23T07:32:26.140Z,826.00
2023-02-23T07:33:25.986Z,808.00
2023-02-23T07:34:26.026Z,727.00
2023-02-23T07:35:25.938Z,869.00
2023-02-23T07:36:25.898Z,997.00
2023-02-23T07:37:25.843Z,792.00
2023-02-23T07:38:25.911Z,989.00
2023-02-23T07:39:25.909Z,708.00
2023-02-23T07:40:25.864Z,732.00
2023-02-23T07:41:25.906Z,963.00
2023-02-23T07:42:25.907Z,685.00
2023-02-23T07:43:25.820Z,688.00
2023-02-23T07:44:25.800Z,915.00
2023-02-23T07:45:25.947Z,967.00
2023-02-23T07:46:25.877Z,843.00
2023-02-23T07:47:25.780Z,726.00
2023-02-23T07:48:25.925Z,879.00
2023-02-23T07:49:25.748Z,1014.00
2023-02-23T07:50:25.725Z,1037.00
2023-02-23T07:51:25.750Z,1135.00
2023-02-23T07:52:25.711Z,1147.00
2023-02-23T07:53:25.787Z,1485.00
2023-02-23T07:54:25.673Z,1264.00
2023-02-23T07:55:25.724Z,1060.00
2023-02-23T07:56:25.653Z,1334.00
2023-02-23T07:57:25.663Z,1107.00
2023-02-23T07:58:25.672Z,1282.00
2023-02-23T07:59:25.722Z,1686.00
2023-02-23T08:00:25.725Z,1346.00
2023-02-23T08:01:25.820Z,1166.00
2023-02-23T08:02:25.728Z,1915.00
2023-02-23T08:03:25.595Z,2111.00
2023-02-23T08:04:25.678Z,1672.00
2023-02-23T08:05:26.623Z,1198.00
2023-02-23T08:06:25.574Z,1436.00
2023-02-23T08:07:25.549Z,1749.00
2023-02-23T08:08:25.688Z,2216.00
2023-02-23T08:09:25.593Z,1717.00
2023-02-23T08:10:25.573Z,1470.00
2023-02-23T08:11:25.501Z,1236.00
2023-02-23T08:12:25.535Z,1112.00
2023-02-23T08:13:25.460Z,1498.00
2023-02-23T08:14:25.511Z,1681.00
2023-02-23T08:15:25.588Z,1100.00
2023-02-23T08:16:25.548Z,1676.00
2023-02-23T08:17:25.427Z,2265.00
2023-02-23T08:18:25.464Z,2005.00
2023-02-23T08:19:25.400Z,1835.00
2023-02-23T08:20:25.384Z,1882.00
2023-02-23T08:21:25.464Z,2265.00
2023-02-23T08:22:25.460Z,1629.00
2023-02-23T08:23:25.397Z,1722.00
2023-02-23T08:24:25.378Z,1557.00
2023-02-23T08:25:25.330Z,1848.00
2023-02-23T08:26:25.431Z,2180.00
2023-02-23T08:27:25.450Z,2152.00
2023-02-23T08:28:25.394Z,1736.00
2023-02-23T08:29:25.351Z,1406.00
2023-02-23T08:30:25.407Z,1537.00
2023-02-23T08:31:25.641Z,1251.00
2023-02-23T08:32:25.353Z,1623.00
2023-02-23T08:33:25.386Z,1722.00
2023-02-23T08:34:25.244Z,1358.00
2023-02-23T08:35:25.256Z,1040.00
2023-02-23T08:36:25.222Z,1037.00
2023-02-23T08:37:25.245Z,1752.00
2023-02-23T08:38:25.219Z,1672.00
2023-02-23T08:39:25.192Z,1460.00
2023-02-23T08:40:25.291Z,1578.00
2023-02-23T08:41:25.337Z,1605.00
2023-02-23T08:42:25.156Z,1369.00
2023-02-23T08:43:25.178Z,1266.00
2023-02-23T08:44:25.179Z,956.00
2023-02-23T08:45:25.167Z,1123.00
2023-02-23T08:46:25.172Z,1017.00
2023-02-23T08:47:25.142Z,996.00
2023-02-23T08:48:25.099Z,1107.00
2023-02-23T08:49:25.079Z,933.00
2023-02-23T08:50:27.349Z,836.00
2023-02-23T08:51:25.074Z,669.00
2023-02-23T08:52:25.050Z,546.00
2023-02-23T08:53:25.057Z,554.00
2023-02-23T08:54:25.024Z,1067.00
2023-02-23T08:55:25.030Z,2211.00
2023-02-23T08:56:25.093Z,2632.00
2023-02-23T08:57:25.034Z,1998.00
2023-02-23T08:58:25.020Z,1986.00
2023-02-23T08:59:24.993Z,2523.00
2023-02-23T09:00:24.960Z,1956.00
2023-02-23T09:01:25.116Z,1682.00
2023-02-23T09:02:24.943Z,2796.00
2023-02-23T09:03:24.967Z,3263.00
2023-02-23T09:04:24.945Z,3094.00
2023-02-23T09:05:25.048Z,2828.00
2023-02-23T09:06:24.899Z,2690.00
2023-02-23T09:07:24.880Z,2163.00
2023-02-23T09:08:24.878Z,3463.00
2023-02-23T09:09:24.878Z,4012.00
2023-02-23T09:10:24.916Z,3298.00
2023-02-23T09:11:24.888Z,2455.00
2023-02-23T09:12:24.839Z,2162.00
2023-02-23T09:13:24.845Z,2411.00
2023-02-23T09:14:24.811Z,2517.00
2023-02-23T09:15:24.818Z,2312.00
2023-02-23T09:16:24.868Z,2498.00
2023-02-23T09:17:24.831Z,2638.00
2023-02-23T09:18:24.844Z,2643.00
2023-02-23T09:19:24.778Z,3211.00
2023-02-23T09:20:24.748Z,2274.00
2023-02-23T09:21:24.762Z,2482.00
2023-02-23T09:22:24.769Z,3257.00
2023-02-23T09:23:24.768Z,2952.00
2023-02-23T09:24:24.682Z,3085.00
2023-02-23T09:25:24.728Z,3505.00
2023-02-23T09:26:24.693Z,3426.00
2023-02-23T09:27:24.688Z,2373.00
2023-02-23T09:28:24.719Z,2906.00
2023-02-23T09:29:24.643Z,3136.00
2023-02-23T09:30:24.644Z,2722.00
2023-02-23T09:31:24.973Z,2197.00
2023-02-23T09:32:24.757Z,1830.00
2023-02-23T09:33:24.626Z,1774.00
2023-02-23T09:34:24.589Z,1800.00
2023-02-23T09:35:24.607Z,1974.00
2023-02-23T09:36:24.604Z,1967.00
2023-02-23T09:37:24.687Z,2451.00
2023-02-23T09:38:24.566Z,2125.00
2023-02-23T09:39:37.334Z,1873.00
2023-02-23T09:40:24.556Z,1617.00
2023-02-23T09:41:24.509Z,2496.00
2023-02-23T09:42:24.596Z,2266.00
2023-02-23T09:43:24.530Z,2119.00
2023-02-23T09:44:24.508Z,2130.00
2023-02-23T09:45:24.505Z,2150.00
2023-02-23T09:46:24.559Z,2474.00
2023-02-23T09:47:24.507Z,2287.00
2023-02-23T09:48:24.446Z,2752.00
2023-02-23T09:49:24.467Z,3316.00
2023-02-23T09:50:24.441Z,3391.00
2023-02-23T09:51:24.434Z,3657.00
2023-02-23T09:52:24.447Z,3872.00
2023-02-23T09:53:24.451Z,3789.00
2023-02-23T09:54:24.402Z,3761.00
2023-02-23T09:55:24.428Z,4004.00
2023-02-23T09:56:24.394Z,4126.00
2023-02-23T09:57:24.394Z,4348.00
2023-02-23T09:58:24.335Z,4849.00
2023-02-23T09:59:24.341Z,5582.00
2023-02-23T10:00:24.355Z,4908.00
2023-02-23T10:01:24.370Z,5304.00
2023-02-23T10:02:24.323Z,5224.00
2023-02-23T10:03:24.314Z,5558.00
2023-02-23T10:04:24.381Z,5586.00
2023-02-23T10:05:24.273Z,5450.00
2023-02-23T10:06:24.278Z,5352.00
2023-02-23T10:07:24.288Z,5243.00
2023-02-23T10:08:24.277Z,5061.00
2023-02-23T10:09:24.270Z,4781.00
2023-02-23T10:10:24.359Z,5069.00
2023-02-23T10:11:24.256Z,5272.00
2023-02-23T10:12:24.240Z,5030.00
2023-02-23T10:13:24.213Z,4863.00
2023-02-23T10:14:24.192Z,4945.00
2023-02-23T10:15:24.179Z,5656.00
2023-02-23T10:16:24.156Z,5489.00
2023-02-23T10:17:24.162Z,5394.00
2023-02-23T10:18:30.688Z,5729.00
2023-02-23T10:19:24.146Z,5700.00
2023-02-23T10:20:24.823Z,5813.00
2023-02-23T10:21:24.157Z,5945.00
2023-02-23T10:22:24.089Z,6639.00
2023-02-23T10:23:24.103Z,6699.00
2023-02-23T10:24:24.074Z,6904.00
2023-02-23T10:25:24.119Z,6751.00
2023-02-23T10:26:24.095Z,6756.00
2023-02-23T10:27:24.065Z,6727.00
2023-02-23T10:28:24.066Z,6186.00
2023-02-23T10:29:24.022Z,6828.00
2023-02-23T10:30:24.014Z,7088.00
2023-02-23T10:31:24.222Z,4847.00
2023-02-23T10:32:24.094Z,5920.00
2023-02-23T10:33:24.010Z,6661.00
2023-02-23T10:34:24.358Z,5798.00
2023-02-23T10:35:24.551Z,5344.00
2023-02-23T10:36:24.234Z,5195.00
2023-02-23T10:37:23.912Z,6815.00
2023-02-23T10:38:24.279Z,5665.00
2023-02-23T10:39:24.388Z,6899.00
2023-02-23T10:40:24.282Z,6763.00
2023-02-23T10:41:24.343Z,6497.00
2023-02-23T10:42:24.443Z,7666.00
2023-02-23T10:43:24.517Z,7387.00
2023-02-23T10:44:24.360Z,7757.00
2023-02-23T10:45:24.573Z,7948.00
2023-02-23T10:46:24.345Z,7017.00
2023-02-23T10:47:24.261Z,6255.00
2023-02-23T10:48:24.418Z,5489.00
2023-02-23T10:49:24.519Z,5372.00
2023-02-23T10:50:24.214Z,5436.00
2023-02-23T10:51:24.109Z,5239.00
2023-02-23T10:52:24.230Z,5087.00
2023-02-23T10:53:24.209Z,4649.00
2023-02-23T10:54:24.177Z,4969.00
2023-02-23T10:55:24.446Z,4888.00
2023-02-23T10:56:23.754Z,6400.00
2023-02-23T10:57:24.526Z,6884.00
2023-02-23T10:58:24.479Z,6258.00
2023-02-23T10:59:24.269Z,6635.00
2023-02-23T11:00:24.097Z,6738.00
2023-02-23T11:01:23.855Z,6343.00
2023-02-23T11:02:24.250Z,5800.00
2023-02-23T11:03:23.674Z,5547.00
2023-02-23T11:04:24.101Z,5506.00
2023-02-23T11:05:24.125Z,5424.00
2023-02-23T11:06:23.630Z,5319.00
2023-02-23T11:07:23.675Z,5360.00
2023-02-23T11:08:24.023Z,5353.00
2023-02-23T11:09:33.114Z,5238.00
2023-02-23T11:10:23.609Z,5582.00
2023-02-23T11:11:24.093Z,5795.00
2023-02-23T11:12:24.213Z,5787.00
2023-02-23T11:13:24.104Z,6008.00
2023-02-23T11:14:24.151Z,6251.00
2023-02-23T11:15:32.050Z,6328.00
2023-02-23T11:16:23.584Z,6154.00
2023-02-23T11:17:24.262Z,5933.00
2023-02-23T11:18:24.538Z,5530.00
2023-02-23T11:19:24.184Z,5273.00
2023-02-23T11:20:23.466Z,5156.00
2023-02-23T11:21:23.501Z,5056.00
2023-02-23T11:22:23.451Z,4813.00
2023-02-23T11:23:23.437Z,4390.00
2023-02-23T11:24:23.445Z,4184.00
2023-02-23T11:25:23.396Z,4091.00
2023-02-23T11:26:23.494Z,3993.00
2023-02-23T11:27:23.455Z,4259.00
2023-02-23T11:28:23.431Z,4760.00
2023-02-23T11:29:23.340Z,4788.00
2023-02-23T11:30:23.370Z,4798.00
2023-02-23T11:31:23.904Z,4593.00
2023-02-23T11:32:23.629Z,4583.00
2023-02-23T11:33:23.317Z,4533.00
2023-02-23T11:34:23.320Z,4680.00
2023-02-23T11:35:23.300Z,5069.00
2023-02-23T11:36:23.278Z,5632.00
2023-02-23T11:37:23.314Z,6535.00
2023-02-23T11:38:23.329Z,6915.00
2023-02-23T11:39:23.245Z,7032.00
2023-02-23T11:40:23.237Z,7905.00
2023-02-23T11:41:23.255Z,9418.00
2023-02-23T11:42:23.242Z,10013.00
2023-02-23T11:43:23.210Z,7692.00
2023-02-23T11:44:23.229Z,7804.00
2023-02-23T11:45:23.244Z,24232.00
2023-02-23T11:46:23.832Z,75717.00
2023-02-23T11:47:23.183Z,71445.00
2023-02-23T11:48:23.141Z,76360.00
2023-02-23T11:49:23.133Z,75932.00
2023-02-23T11:50:23.160Z,75400.00
2023-02-23T11:51:23.153Z,73284.00
2023-02-23T11:52:23.156Z,66134.00
2023-02-23T11:53:23.104Z,19882.00
2023-02-23T11:54:23.118Z,9364.00
2023-02-23T11:55:23.089Z,75331.00
2023-02-23T11:56:23.132Z,64410.00
2023-02-23T11:57:23.046Z,22000.00
2023-02-23T11:58:23.067Z,15991.00
2023-02-23T11:59:23.011Z,9381.00
2023-02-23T12:00:23.012Z,8285.00
2023-02-23T12:01:23.049Z,6922.00
2023-02-23T12:02:23.051Z,7200.00
2023-02-23T12:03:23.167Z,6581.00
2023-02-23T12:04:23.006Z,6392.00
2023-02-23T12:05:23.017Z,6177.00
2023-02-23T12:06:23.128Z,6290.00
2023-02-23T12:07:22.995Z,8404.00
2023-02-23T12:08:22.971Z,6093.00
2023-02-23T12:09:22.894Z,6458.00
2023-02-23T12:10:23.021Z,5517.00
2023-02-23T12:11:22.890Z,4750.00
2023-02-23T12:12:22.950Z,4368.00
2023-02-23T12:13:22.953Z,3726.00
2023-02-23T12:14:22.852Z,5613.00
2023-02-23T12:15:23.021Z,5137.00
2023-02-23T12:16:23.164Z,7879.00
2023-02-23T12:17:22.876Z,9988.00
2023-02-23T12:18:22.849Z,11361.00
2023-02-23T12:19:22.900Z,9672.00
2023-02-23T12:20:22.798Z,8391.00
2023-02-23T12:21:22.871Z,6784.00
2023-02-23T12:22:22.761Z,5528.00
2023-02-23T12:23:22.779Z,4647.00
2023-02-23T12:24:22.817Z,4127.00
2023-02-23T12:25:22.778Z,3514.00
2023-02-23T12:26:22.777Z,3114.00
2023-02-23T12:27:22.795Z,3008.00
2023-02-23T12:28:22.842Z,2845.00
2023-02-23T12:29:22.765Z,2757.00
2023-02-23T12:30:22.693Z,2597.00
2023-02-23T12:31:22.719Z,2535.00
2023-02-23T12:32:22.806Z,2523.00
2023-02-23T12:33:22.713Z,2559.00
2023-02-23T12:34:22.652Z,2534.00
2023-02-23T12:35:22.634Z,2434.00
2023-02-23T12:36:22.645Z,2431.00
2023-02-23T12:37:22.692Z,2643.00
2023-02-23T12:38:22.601Z,2916.00
2023-02-23T12:39:22.652Z,3241.00
2023-02-23T12:40:22.656Z,3444.00
2023-02-23T12:41:22.588Z,4025.00
2023-02-23T12:42:22.581Z,4771.00